sensor_id;sensor_type;location;lat;lon;timestamp;temperature;humidity
55828;DHT22;41758;51.992;5.890;2022-10-16T00:01:29;20.10;69.90
55828;DHT22;41758;51.992;5.890;2022-10-16T00:03:57;20.10;70.00
55828;DHT22;41758;51.992;5.890;2022-10-16T00:06:23;20.10;70.00
55828;DHT22;41758;51.992;5.890;2022-10-16T00:08:50;20.10;70.10
55828;DHT22;41758;51.992;5.890;2022-10-16T00:11:19;20.10;70.10
55828;DHT22;41758;51.992;5.890;2022-10-16T00:13:47;20.10;70.00
55828;DHT22;41758;51.992;5.890;2022-10-16T00:16:13;20.00;70.00
55828;DHT22;41758;51.992;5.890;2022-10-16T00:18:40;20.00;69.80
55828;DHT22;41758;51.992;5.890;2022-10-16T00:21:21;20.00;69.80
55828;DHT22;41758;51.992;5.890;2022-10-16T00:23:51;20.00;69.80
55828;DHT22;41758;51.992;5.890;2022-10-16T00:26:17;20.00;69.80
55828;DHT22;41758;51.992;5.890;2022-10-16T00:28:49;20.00;69.70
55828;DHT22;41758;51.992;5.890;2022-10-16T00:31:15;20.00;69.60
55828;DHT22;41758;51.992;5.890;2022-10-16T00:33:41;20.00;69.70
55828;DHT22;41758;51.992;5.890;2022-10-16T00:36:09;20.00;69.60
55828;DHT22;41758;51.992;5.890;2022-10-16T00:38:35;19.90;69.50
55828;DHT22;41758;51.992;5.890;2022-10-16T00:41:03;19.90;69.40
55828;DHT22;41758;51.992;5.890;2022-10-16T00:43:39;19.90;69.30
55828;DHT22;41758;51.992;5.890;2022-10-16T00:48:39;19.90;69.30
55828;DHT22;41758;51.992;5.890;2022-10-16T00:51:06;19.90;69.30
55828;DHT22;41758;51.992;5.890;2022-10-16T00:53:33;19.90;69.30
55828;DHT22;41758;51.992;5.890;2022-10-16T00:55:59;19.90;69.40
55828;DHT22;41758;51.992;5.890;2022-10-16T00:58:24;19.90;69.40
55828;DHT22;41758;51.992;5.890;2022-10-16T01:00:50;19.90;69.50
55828;DHT22;41758;51.992;5.890;2022-10-16T01:03:31;19.90;69.40
55828;DHT22;41758;51.992;5.890;2022-10-16T01:08:58;19.90;69.20
55828;DHT22;41758;51.992;5.890;2022-10-16T01:14:32;19.80;68.80
55828;DHT22;41758;51.992;5.890;2022-10-16T01:17:09;19.80;68.90
55828;DHT22;41758;51.992;5.890;2022-10-16T01:22:25;19.80;69.20
55828;DHT22;41758;51.992;5.890;2022-10-16T01:24:54;19.80;69.40
55828;DHT22;41758;51.992;5.890;2022-10-16T01:27:30;19.90;69.60
55828;DHT22;41758;51.992;5.890;2022-10-16T01:30:10;19.90;69.60
55828;DHT22;41758;51.992;5.890;2022-10-16T01:32:50;19.90;69.70
55828;DHT22;41758;51.992;5.890;2022-10-16T01:35:28;19.90;69.40
55828;DHT22;41758;51.992;5.890;2022-10-16T01:40:27;19.90;69.50
55828;DHT22;41758;51.992;5.890;2022-10-16T01:43:11;19.90;69.40
55828;DHT22;41758;51.992;5.890;2022-10-16T01:45:38;19.90;69.30
55828;DHT22;41758;51.992;5.890;2022-10-16T01:48:05;20.00;69.40
55828;DHT22;41758;51.992;5.890;2022-10-16T01:50:37;19.90;69.40
55828;DHT22;41758;51.992;5.890;2022-10-16T01:53:05;20.00;69.40
55828;DHT22;41758;51.992;5.890;2022-10-16T01:55:35;20.00;69.30
55828;DHT22;41758;51.992;5.890;2022-10-16T01:58:05;20.00;69.40
55828;DHT22;41758;51.992;5.890;2022-10-16T02:00:34;20.00;69.40
55828;DHT22;41758;51.992;5.890;2022-10-16T02:03:02;20.10;69.50
55828;DHT22;41758;51.992;5.890;2022-10-16T02:05:37;20.10;69.60
55828;DHT22;41758;51.992;5.890;2022-10-16T02:08:04;20.10;69.70
55828;DHT22;41758;51.992;5.890;2022-10-16T02:10:30;20.10;69.70
55828;DHT22;41758;51.992;5.890;2022-10-16T02:13:01;20.10;69.80
55828;DHT22;41758;51.992;5.890;2022-10-16T02:15:29;20.10;69.80
55828;DHT22;41758;51.992;5.890;2022-10-16T02:17:55;20.20;69.70
55828;DHT22;41758;51.992;5.890;2022-10-16T02:20:25;20.20;69.60
55828;DHT22;41758;51.992;5.890;2022-10-16T02:22:54;20.20;69.60
55828;DHT22;41758;51.992;5.890;2022-10-16T02:25:31;20.20;69.70
55828;DHT22;41758;51.992;5.890;2022-10-16T02:28:07;20.20;69.70
55828;DHT22;41758;51.992;5.890;2022-10-16T02:30:39;20.20;69.80
55828;DHT22;41758;51.992;5.890;2022-10-16T02:33:09;20.20;69.80
55828;DHT22;41758;51.992;5.890;2022-10-16T02:35:36;20.20;69.80
55828;DHT22;41758;51.992;5.890;2022-10-16T02:38:03;20.20;69.60
55828;DHT22;41758;51.992;5.890;2022-10-16T02:40:30;20.20;69.50
55828;DHT22;41758;51.992;5.890;2022-10-16T02:42:56;20.10;69.60
55828;DHT22;41758;51.992;5.890;2022-10-16T02:45:22;20.10;69.60
55828;DHT22;41758;51.992;5.890;2022-10-16T02:47:48;20.20;69.70
55828;DHT22;41758;51.992;5.890;2022-10-16T02:50:14;20.10;69.80
55828;DHT22;41758;51.992;5.890;2022-10-16T02:52:40;20.10;69.80
55828;DHT22;41758;51.992;5.890;2022-10-16T02:55:06;20.20;69.90
55828;DHT22;41758;51.992;5.890;2022-10-16T02:57:32;20.10;69.90
55828;DHT22;41758;51.992;5.890;2022-10-16T02:59:58;20.10;69.90
55828;DHT22;41758;51.992;5.890;2022-10-16T03:02:24;20.10;70.00
55828;DHT22;41758;51.992;5.890;2022-10-16T03:04:50;20.10;70.10
55828;DHT22;41758;51.992;5.890;2022-10-16T03:07:15;20.10;70.00
55828;DHT22;41758;51.992;5.890;2022-10-16T03:09:44;20.10;70.00
55828;DHT22;41758;51.992;5.890;2022-10-16T03:12:10;20.20;69.90
55828;DHT22;41758;51.992;5.890;2022-10-16T03:14:37;20.20;70.00
55828;DHT22;41758;51.992;5.890;2022-10-16T03:17:05;20.20;69.90
55828;DHT22;41758;51.992;5.890;2022-10-16T03:19:31;20.20;69.80
55828;DHT22;41758;51.992;5.890;2022-10-16T03:21:56;20.20;69.80
55828;DHT22;41758;51.992;5.890;2022-10-16T03:24:22;20.20;69.90
55828;DHT22;41758;51.992;5.890;2022-10-16T03:26:48;20.20;69.90
55828;DHT22;41758;51.992;5.890;2022-10-16T03:29:14;20.10;70.00
55828;DHT22;41758;51.992;5.890;2022-10-16T03:31:39;20.20;70.10
55828;DHT22;41758;51.992;5.890;2022-10-16T03:34:05;20.20;70.10
55828;DHT22;41758;51.992;5.890;2022-10-16T03:36:31;20.20;70.10
55828;DHT22;41758;51.992;5.890;2022-10-16T03:38:57;20.20;70.10
55828;DHT22;41758;51.992;5.890;2022-10-16T03:41:22;20.20;70.20
55828;DHT22;41758;51.992;5.890;2022-10-16T03:43:48;20.20;70.20
55828;DHT22;41758;51.992;5.890;2022-10-16T03:46:14;20.20;70.10
55828;DHT22;41758;51.992;5.890;2022-10-16T03:48:39;20.20;70.10
55828;DHT22;41758;51.992;5.890;2022-10-16T03:51:06;20.20;70.00
55828;DHT22;41758;51.992;5.890;2022-10-16T03:53:31;20.20;70.00
55828;DHT22;41758;51.992;5.890;2022-10-16T03:55:57;20.20;69.90
55828;DHT22;41758;51.992;5.890;2022-10-16T03:58:23;20.20;70.10
55828;DHT22;41758;51.992;5.890;2022-10-16T04:00:49;20.20;70.10
55828;DHT22;41758;51.992;5.890;2022-10-16T04:03:15;20.20;70.10
55828;DHT22;41758;51.992;5.890;2022-10-16T04:05:41;20.10;70.10
55828;DHT22;41758;51.992;5.890;2022-10-16T04:08:07;20.20;70.20
55828;DHT22;41758;51.992;5.890;2022-10-16T04:10:33;20.20;70.20
55828;DHT22;41758;51.992;5.890;2022-10-16T04:12:58;20.20;70.20
55828;DHT22;41758;51.992;5.890;2022-10-16T04:15:24;20.10;70.20
55828;DHT22;41758;51.992;5.890;2022-10-16T04:17:51;20.20;70.20
55828;DHT22;41758;51.992;5.890;2022-10-16T04:20:17;20.20;70.00
55828;DHT22;41758;51.992;5.890;2022-10-16T04:22:44;20.20;70.10
55828;DHT22;41758;51.992;5.890;2022-10-16T04:25:10;20.20;69.90
55828;DHT22;41758;51.992;5.890;2022-10-16T04:27:37;20.20;69.80
55828;DHT22;41758;51.992;5.890;2022-10-16T04:30:03;20.30;70.00
55828;DHT22;41758;51.992;5.890;2022-10-16T04:32:29;20.30;70.10
55828;DHT22;41758;51.992;5.890;2022-10-16T04:34:55;20.30;69.90
55828;DHT22;41758;51.992;5.890;2022-10-16T04:37:24;20.30;69.90
55828;DHT22;41758;51.992;5.890;2022-10-16T04:39:51;20.30;69.90
55828;DHT22;41758;51.992;5.890;2022-10-16T04:42:17;20.30;70.00
55828;DHT22;41758;51.992;5.890;2022-10-16T04:44:42;20.30;70.00
55828;DHT22;41758;51.992;5.890;2022-10-16T04:47:08;20.30;69.90
55828;DHT22;41758;51.992;5.890;2022-10-16T04:49:34;20.20;69.40
55828;DHT22;41758;51.992;5.890;2022-10-16T04:51:59;20.20;69.70
55828;DHT22;41758;51.992;5.890;2022-10-16T04:54:28;20.20;69.90
55828;DHT22;41758;51.992;5.890;2022-10-16T04:56:54;20.20;69.90
55828;DHT22;41758;51.992;5.890;2022-10-16T04:59:20;20.20;69.90
55828;DHT22;41758;51.992;5.890;2022-10-16T05:01:46;20.10;69.80
55828;DHT22;41758;51.992;5.890;2022-10-16T05:04:12;20.10;69.90
55828;DHT22;41758;51.992;5.890;2022-10-16T05:06:38;20.20;69.90
55828;DHT22;41758;51.992;5.890;2022-10-16T05:09:05;20.20;70.00
55828;DHT22;41758;51.992;5.890;2022-10-16T05:11:31;20.20;70.00
55828;DHT22;41758;51.992;5.890;2022-10-16T05:13:57;20.20;69.90
55828;DHT22;41758;51.992;5.890;2022-10-16T05:16:22;20.20;69.90
55828;DHT22;41758;51.992;5.890;2022-10-16T05:18:48;20.10;70.00
55828;DHT22;41758;51.992;5.890;2022-10-16T05:21:14;20.10;70.10
55828;DHT22;41758;51.992;5.890;2022-10-16T05:23:40;20.10;70.10
55828;DHT22;41758;51.992;5.890;2022-10-16T05:26:05;20.10;70.10
55828;DHT22;41758;51.992;5.890;2022-10-16T05:28:31;20.10;70.10
55828;DHT22;41758;51.992;5.890;2022-10-16T05:30:57;20.10;70.10
55828;DHT22;41758;51.992;5.890;2022-10-16T05:33:25;20.10;70.00
55828;DHT22;41758;51.992;5.890;2022-10-16T05:35:51;20.10;70.10
55828;DHT22;41758;51.992;5.890;2022-10-16T05:38:18;20.10;70.20
55828;DHT22;41758;51.992;5.890;2022-10-16T05:40:49;20.10;70.20
55828;DHT22;41758;51.992;5.890;2022-10-16T05:43:15;20.10;70.10
55828;DHT22;41758;51.992;5.890;2022-10-16T05:45:41;20.10;70.00
55828;DHT22;41758;51.992;5.890;2022-10-16T05:48:06;20.10;70.10
55828;DHT22;41758;51.992;5.890;2022-10-16T05:50:32;20.10;70.10
55828;DHT22;41758;51.992;5.890;2022-10-16T05:52:58;20.00;70.00
55828;DHT22;41758;51.992;5.890;2022-10-16T05:55:26;20.00;70.00
55828;DHT22;41758;51.992;5.890;2022-10-16T05:57:54;20.00;70.10
55828;DHT22;41758;51.992;5.890;2022-10-16T06:00:20;20.00;70.10
55828;DHT22;41758;51.992;5.890;2022-10-16T06:02:45;20.00;70.10
55828;DHT22;41758;51.992;5.890;2022-10-16T06:05:14;20.00;70.10
55828;DHT22;41758;51.992;5.890;2022-10-16T06:07:39;20.00;70.00
55828;DHT22;41758;51.992;5.890;2022-10-16T06:10:06;20.00;70.00
55828;DHT22;41758;51.992;5.890;2022-10-16T06:12:32;20.00;69.90
55828;DHT22;41758;51.992;5.890;2022-10-16T06:14:57;20.00;70.00
55828;DHT22;41758;51.992;5.890;2022-10-16T06:17:23;20.00;69.90
55828;DHT22;41758;51.992;5.890;2022-10-16T06:19:48;20.00;69.90
55828;DHT22;41758;51.992;5.890;2022-10-16T06:22:14;20.00;70.10
55828;DHT22;41758;51.992;5.890;2022-10-16T06:24:40;20.10;70.20
55828;DHT22;41758;51.992;5.890;2022-10-16T06:27:05;20.10;70.20
55828;DHT22;41758;51.992;5.890;2022-10-16T06:29:31;20.10;70.20
55828;DHT22;41758;51.992;5.890;2022-10-16T06:32:05;20.10;70.10
55828;DHT22;41758;51.992;5.890;2022-10-16T06:34:31;20.20;70.20
55828;DHT22;41758;51.992;5.890;2022-10-16T06:36:56;20.20;70.20
55828;DHT22;41758;51.992;5.890;2022-10-16T06:39:22;20.20;70.20
55828;DHT22;41758;51.992;5.890;2022-10-16T06:41:48;20.20;70.10
55828;DHT22;41758;51.992;5.890;2022-10-16T06:44:15;20.20;70.10
55828;DHT22;41758;51.992;5.890;2022-10-16T06:46:40;20.20;70.10
55828;DHT22;41758;51.992;5.890;2022-10-16T06:49:06;20.20;69.70
55828;DHT22;41758;51.992;5.890;2022-10-16T06:51:31;20.20;69.70
55828;DHT22;41758;51.992;5.890;2022-10-16T06:53:59;20.20;69.80
55828;DHT22;41758;51.992;5.890;2022-10-16T06:56:27;20.30;69.90
55828;DHT22;41758;51.992;5.890;2022-10-16T06:58:54;20.30;70.00
55828;DHT22;41758;51.992;5.890;2022-10-16T07:01:21;20.30;69.90
55828;DHT22;41758;51.992;5.890;2022-10-16T07:03:47;20.30;69.90
55828;DHT22;41758;51.992;5.890;2022-10-16T07:06:15;20.30;70.00
55828;DHT22;41758;51.992;5.890;2022-10-16T07:08:43;20.30;70.00
55828;DHT22;41758;51.992;5.890;2022-10-16T07:11:15;20.30;69.90
55828;DHT22;41758;51.992;5.890;2022-10-16T07:13:42;20.30;70.00
55828;DHT22;41758;51.992;5.890;2022-10-16T07:16:23;20.40;70.10
55828;DHT22;41758;51.992;5.890;2022-10-16T07:18:59;20.40;70.00
55828;DHT22;41758;51.992;5.890;2022-10-16T07:21:31;20.40;69.90
55828;DHT22;41758;51.992;5.890;2022-10-16T07:24:10;20.30;69.90
55828;DHT22;41758;51.992;5.890;2022-10-16T07:26:37;20.40;70.00
55828;DHT22;41758;51.992;5.890;2022-10-16T07:29:15;20.40;70.00
55828;DHT22;41758;51.992;5.890;2022-10-16T07:31:42;20.30;69.70
55828;DHT22;41758;51.992;5.890;2022-10-16T07:34:07;20.30;69.90
55828;DHT22;41758;51.992;5.890;2022-10-16T07:36:33;20.30;69.80
55828;DHT22;41758;51.992;5.890;2022-10-16T07:38:59;20.30;69.70
55828;DHT22;41758;51.992;5.890;2022-10-16T07:41:25;20.30;69.70
55828;DHT22;41758;51.992;5.890;2022-10-16T07:43:52;20.40;69.90
55828;DHT22;41758;51.992;5.890;2022-10-16T07:46:20;20.40;69.80
55828;DHT22;41758;51.992;5.890;2022-10-16T07:48:46;20.40;69.80
55828;DHT22;41758;51.992;5.890;2022-10-16T07:51:24;20.40;69.80
55828;DHT22;41758;51.992;5.890;2022-10-16T07:53:50;20.40;69.60
55828;DHT22;41758;51.992;5.890;2022-10-16T07:56:17;20.40;69.70
55828;DHT22;41758;51.992;5.890;2022-10-16T07:58:43;20.40;69.40
55828;DHT22;41758;51.992;5.890;2022-10-16T08:01:14;20.50;69.70
55828;DHT22;41758;51.992;5.890;2022-10-16T08:03:47;20.50;69.30
55828;DHT22;41758;51.992;5.890;2022-10-16T08:06:13;20.50;69.60
55828;DHT22;41758;51.992;5.890;2022-10-16T08:08:38;20.60;69.60
55828;DHT22;41758;51.992;5.890;2022-10-16T08:11:04;20.60;69.60
55828;DHT22;41758;51.992;5.890;2022-10-16T08:13:31;20.60;69.80
55828;DHT22;41758;51.992;5.890;2022-10-16T08:15:59;20.70;69.80
55828;DHT22;41758;51.992;5.890;2022-10-16T08:18:25;20.80;69.80
55828;DHT22;41758;51.992;5.890;2022-10-16T08:20:59;20.80;69.90
55828;DHT22;41758;51.992;5.890;2022-10-16T08:23:26;20.80;69.80
55828;DHT22;41758;51.992;5.890;2022-10-16T08:25:56;20.80;69.70
55828;DHT22;41758;51.992;5.890;2022-10-16T08:28:22;20.80;69.40
55828;DHT22;41758;51.992;5.890;2022-10-16T08:30:48;20.80;68.30
55828;DHT22;41758;51.992;5.890;2022-10-16T08:33:14;20.60;67.00
55828;DHT22;41758;51.992;5.890;2022-10-16T08:35:40;20.60;68.30
55828;DHT22;41758;51.992;5.890;2022-10-16T08:38:06;20.70;68.70
55828;DHT22;41758;51.992;5.890;2022-10-16T08:40:33;20.70;69.00
55828;DHT22;41758;51.992;5.890;2022-10-16T08:46:53;20.70;69.20
55828;DHT22;41758;51.992;5.890;2022-10-16T08:48:51;20.60;68.60
55828;DHT22;41758;51.992;5.890;2022-10-16T08:51:22;20.60;69.50
55828;DHT22;41758;51.992;5.890;2022-10-16T08:53:53;20.60;69.60
55828;DHT22;41758;51.992;5.890;2022-10-16T08:56:20;20.60;69.60
55828;DHT22;41758;51.992;5.890;2022-10-16T08:58:46;20.60;69.70
55828;DHT22;41758;51.992;5.890;2022-10-16T09:01:15;20.60;69.70
55828;DHT22;41758;51.992;5.890;2022-10-16T09:06:54;20.60;69.80
55828;DHT22;41758;51.992;5.890;2022-10-16T09:12:25;20.60;70.00
55828;DHT22;41758;51.992;5.890;2022-10-16T09:15:20;20.60;69.50
55828;DHT22;41758;51.992;5.890;2022-10-16T09:21:03;20.60;69.90
55828;DHT22;41758;51.992;5.890;2022-10-16T09:23:34;20.60;70.10
55828;DHT22;41758;51.992;5.890;2022-10-16T09:26:01;20.60;70.00
55828;DHT22;41758;51.992;5.890;2022-10-16T09:28:28;20.60;70.20
55828;DHT22;41758;51.992;5.890;2022-10-16T09:30:53;20.70;69.90
55828;DHT22;41758;51.992;5.890;2022-10-16T09:33:25;20.60;69.50
55828;DHT22;41758;51.992;5.890;2022-10-16T09:35:53;20.70;69.70
55828;DHT22;41758;51.992;5.890;2022-10-16T09:40:51;20.80;69.80
55828;DHT22;41758;51.992;5.890;2022-10-16T09:43:39;20.80;69.70
55828;DHT22;41758;51.992;5.890;2022-10-16T09:46:19;20.80;69.80
55828;DHT22;41758;51.992;5.890;2022-10-16T09:48:50;20.80;70.00
55828;DHT22;41758;51.992;5.890;2022-10-16T09:51:30;20.80;70.00
55828;DHT22;41758;51.992;5.890;2022-10-16T09:54:18;20.80;69.90
55828;DHT22;41758;51.992;5.890;2022-10-16T09:56:42;20.80;69.60
55828;DHT22;41758;51.992;5.890;2022-10-16T09:59:14;20.80;69.30
55828;DHT22;41758;51.992;5.890;2022-10-16T10:01:43;20.80;69.60
55828;DHT22;41758;51.992;5.890;2022-10-16T10:04:10;20.80;68.40
55828;DHT22;41758;51.992;5.890;2022-10-16T10:06:36;20.80;68.70
55828;DHT22;41758;51.992;5.890;2022-10-16T10:12:01;20.80;69.00
55828;DHT22;41758;51.992;5.890;2022-10-16T10:14:37;20.70;68.30
55828;DHT22;41758;51.992;5.890;2022-10-16T10:17:14;20.70;68.60
55828;DHT22;41758;51.992;5.890;2022-10-16T10:19:55;20.80;69.20
55828;DHT22;41758;51.992;5.890;2022-10-16T10:22:27;20.80;69.20
55828;DHT22;41758;51.992;5.890;2022-10-16T10:24:59;20.90;69.20
55828;DHT22;41758;51.992;5.890;2022-10-16T10:30:36;21.00;68.80
55828;DHT22;41758;51.992;5.890;2022-10-16T10:38:39;20.90;68.70
55828;DHT22;41758;51.992;5.890;2022-10-16T10:49:43;21.30;69.10
55828;DHT22;41758;51.992;5.890;2022-10-16T10:55:20;21.40;69.30
55828;DHT22;41758;51.992;5.890;2022-10-16T11:00:39;21.50;69.20
55828;DHT22;41758;51.992;5.890;2022-10-16T11:03:32;21.50;68.00
55828;DHT22;41758;51.992;5.890;2022-10-16T11:06:06;21.50;68.70
55828;DHT22;41758;51.992;5.890;2022-10-16T11:11:05;21.50;68.90
55828;DHT22;41758;51.992;5.890;2022-10-16T11:13:55;21.60;69.00
55828;DHT22;41758;51.992;5.890;2022-10-16T11:16:30;21.60;68.50
55828;DHT22;41758;51.992;5.890;2022-10-16T11:21:46;21.70;68.60
55828;DHT22;41758;51.992;5.890;2022-10-16T11:26:45;21.70;67.80
55828;DHT22;41758;51.992;5.890;2022-10-16T11:29:23;21.70;68.40
55828;DHT22;41758;51.992;5.890;2022-10-16T11:31:57;21.70;68.30
55828;DHT22;41758;51.992;5.890;2022-10-16T11:34:32;21.80;68.60
55828;DHT22;41758;51.992;5.890;2022-10-16T11:37:12;21.90;68.60
55828;DHT22;41758;51.992;5.890;2022-10-16T11:39:40;21.90;68.60
55828;DHT22;41758;51.992;5.890;2022-10-16T11:42:50;22.00;68.70
55828;DHT22;41758;51.992;5.890;2022-10-16T11:45:34;22.20;69.00
55828;DHT22;41758;51.992;5.890;2022-10-16T11:48:21;22.30;66.70
55828;DHT22;41758;51.992;5.890;2022-10-16T11:53:59;22.60;67.00
55828;DHT22;41758;51.992;5.890;2022-10-16T11:56:30;22.60;66.00
55828;DHT22;41758;51.992;5.890;2022-10-16T11:59:05;22.60;67.40
55828;DHT22;41758;51.992;5.890;2022-10-16T12:01:49;22.90;68.70
55828;DHT22;41758;51.992;5.890;2022-10-16T12:04:31;23.50;68.10
55828;DHT22;41758;51.992;5.890;2022-10-16T12:07:05;24.20;64.60
55828;DHT22;41758;51.992;5.890;2022-10-16T12:09:33;24.70;62.10
55828;DHT22;41758;51.992;5.890;2022-10-16T12:12:00;25.10;63.00
55828;DHT22;41758;51.992;5.890;2022-10-16T12:17:00;25.90;62.30
55828;DHT22;41758;51.992;5.890;2022-10-16T12:19:28;26.30;60.40
55828;DHT22;41758;51.992;5.890;2022-10-16T12:22:00;26.50;61.20
55828;DHT22;41758;51.992;5.890;2022-10-16T12:24:34;26.70;60.50
55828;DHT22;41758;51.992;5.890;2022-10-16T12:27:01;26.90;56.80
55828;DHT22;41758;51.992;5.890;2022-10-16T12:29:32;27.00;57.40
55828;DHT22;41758;51.992;5.890;2022-10-16T12:31:58;26.80;56.80
55828;DHT22;41758;51.992;5.890;2022-10-16T12:34:41;26.90;59.10
55828;DHT22;41758;51.992;5.890;2022-10-16T12:37:09;27.10;60.30
55828;DHT22;41758;51.992;5.890;2022-10-16T12:39:36;27.40;60.90
55828;DHT22;41758;51.992;5.890;2022-10-16T12:44:53;27.60;57.20
55828;DHT22;41758;51.992;5.890;2022-10-16T12:49:54;28.20;58.60
55828;DHT22;41758;51.992;5.890;2022-10-16T12:52:38;28.50;59.10
55828;DHT22;41758;51.992;5.890;2022-10-16T12:55:12;28.70;58.40
55828;DHT22;41758;51.992;5.890;2022-10-16T13:05:42;28.30;55.50
55828;DHT22;41758;51.992;5.890;2022-10-16T13:11:50;27.10;56.90
55828;DHT22;41758;51.992;5.890;2022-10-16T13:14:25;26.50;57.60
55828;DHT22;41758;51.992;5.890;2022-10-16T13:17:25;26.00;59.80
55828;DHT22;41758;51.992;5.890;2022-10-16T13:20:12;25.50;59.70
55828;DHT22;41758;51.992;5.890;2022-10-16T13:25:25;24.90;61.00
55828;DHT22;41758;51.992;5.890;2022-10-16T13:28:05;24.60;62.20
55828;DHT22;41758;51.992;5.890;2022-10-16T13:30:40;24.40;62.80
55828;DHT22;41758;51.992;5.890;2022-10-16T13:33:19;24.20;60.80
55828;DHT22;41758;51.992;5.890;2022-10-16T13:35:54;24.00;61.80
55828;DHT22;41758;51.992;5.890;2022-10-16T13:38:23;23.90;62.80
55828;DHT22;41758;51.992;5.890;2022-10-16T13:40:59;23.80;63.50
55828;DHT22;41758;51.992;5.890;2022-10-16T13:46:14;23.60;63.40
55828;DHT22;41758;51.992;5.890;2022-10-16T13:48:40;23.50;63.10
55828;DHT22;41758;51.992;5.890;2022-10-16T13:51:13;23.40;62.80
55828;DHT22;41758;51.992;5.890;2022-10-16T13:53:40;23.30;61.50
55828;DHT22;41758;51.992;5.890;2022-10-16T13:56:11;23.30;62.30
55828;DHT22;41758;51.992;5.890;2022-10-16T13:58:37;23.20;63.40
55828;DHT22;41758;51.992;5.890;2022-10-16T14:01:18;23.10;63.40
55828;DHT22;41758;51.992;5.890;2022-10-16T14:03:46;23.10;64.00
55828;DHT22;41758;51.992;5.890;2022-10-16T14:06:18;23.10;64.30
55828;DHT22;41758;51.992;5.890;2022-10-16T14:08:56;23.00;63.30
55828;DHT22;41758;51.992;5.890;2022-10-16T14:11:24;23.00;63.60
55828;DHT22;41758;51.992;5.890;2022-10-16T14:13:51;23.00;64.40
55828;DHT22;41758;51.992;5.890;2022-10-16T14:16:25;22.90;64.50
55828;DHT22;41758;51.992;5.890;2022-10-16T14:19:05;22.90;64.70
55828;DHT22;41758;51.992;5.890;2022-10-16T14:21:36;22.90;65.10
55828;DHT22;41758;51.992;5.890;2022-10-16T14:24:13;22.90;65.50
55828;DHT22;41758;51.992;5.890;2022-10-16T14:26:46;22.90;62.60
55828;DHT22;41758;51.992;5.890;2022-10-16T14:29:18;22.80;64.80
55828;DHT22;41758;51.992;5.890;2022-10-16T14:31:57;22.90;65.10
55828;DHT22;41758;51.992;5.890;2022-10-16T14:36:50;22.80;65.60
55828;DHT22;41758;51.992;5.890;2022-10-16T14:39:23;22.80;63.90
55828;DHT22;41758;51.992;5.890;2022-10-16T14:41:52;22.80;64.80
55828;DHT22;41758;51.992;5.890;2022-10-16T14:44:26;22.80;65.10
55828;DHT22;41758;51.992;5.890;2022-10-16T14:46:52;22.80;65.20
55828;DHT22;41758;51.992;5.890;2022-10-16T14:49:19;22.80;65.50
55828;DHT22;41758;51.992;5.890;2022-10-16T14:51:58;22.80;65.60
55828;DHT22;41758;51.992;5.890;2022-10-16T14:54:23;22.80;65.60
55828;DHT22;41758;51.992;5.890;2022-10-16T14:56:54;22.80;65.60
55828;DHT22;41758;51.992;5.890;2022-10-16T14:59:32;22.80;65.80
55828;DHT22;41758;51.992;5.890;2022-10-16T15:01:59;22.70;65.90
55828;DHT22;41758;51.992;5.890;2022-10-16T15:04:25;22.70;65.90
55828;DHT22;41758;51.992;5.890;2022-10-16T15:06:51;22.70;66.00
55828;DHT22;41758;51.992;5.890;2022-10-16T15:09:16;22.80;66.00
55828;DHT22;41758;51.992;5.890;2022-10-16T15:11:43;22.80;66.00
55828;DHT22;41758;51.992;5.890;2022-10-16T15:14:12;22.70;66.10
55828;DHT22;41758;51.992;5.890;2022-10-16T15:16:38;22.70;66.10
55828;DHT22;41758;51.992;5.890;2022-10-16T15:19:04;22.70;66.10
55828;DHT22;41758;51.992;5.890;2022-10-16T15:21:32;22.70;66.10
55828;DHT22;41758;51.992;5.890;2022-10-16T15:23:59;22.60;66.10
55828;DHT22;41758;51.992;5.890;2022-10-16T15:26:26;22.60;66.20
55828;DHT22;41758;51.992;5.890;2022-10-16T15:28:52;22.60;66.30
55828;DHT22;41758;51.992;5.890;2022-10-16T15:31:19;22.50;66.40
55828;DHT22;41758;51.992;5.890;2022-10-16T15:33:50;22.50;66.40
55828;DHT22;41758;51.992;5.890;2022-10-16T15:36:25;22.50;66.50
55828;DHT22;41758;51.992;5.890;2022-10-16T15:38:51;22.50;66.50
55828;DHT22;41758;51.992;5.890;2022-10-16T15:41:17;22.40;66.60
55828;DHT22;41758;51.992;5.890;2022-10-16T15:43:42;22.40;66.70
55828;DHT22;41758;51.992;5.890;2022-10-16T15:46:11;22.40;66.70
55828;DHT22;41758;51.992;5.890;2022-10-16T15:48:39;22.40;66.80
55828;DHT22;41758;51.992;5.890;2022-10-16T15:51:07;22.40;66.80
55828;DHT22;41758;51.992;5.890;2022-10-16T15:53:33;22.40;66.80
55828;DHT22;41758;51.992;5.890;2022-10-16T15:56:04;22.40;66.80
55828;DHT22;41758;51.992;5.890;2022-10-16T15:58:30;22.40;66.80
55828;DHT22;41758;51.992;5.890;2022-10-16T16:00:57;22.40;66.90
55828;DHT22;41758;51.992;5.890;2022-10-16T16:03:23;22.40;66.90
55828;DHT22;41758;51.992;5.890;2022-10-16T16:05:49;22.30;67.00
55828;DHT22;41758;51.992;5.890;2022-10-16T16:08:15;22.30;67.00
55828;DHT22;41758;51.992;5.890;2022-10-16T16:10:42;22.30;67.00
55828;DHT22;41758;51.992;5.890;2022-10-16T16:13:07;22.30;67.10
55828;DHT22;41758;51.992;5.890;2022-10-16T16:15:33;22.30;67.20
55828;DHT22;41758;51.992;5.890;2022-10-16T16:17:59;22.30;67.20
55828;DHT22;41758;51.992;5.890;2022-10-16T16:20:30;22.30;67.20
55828;DHT22;41758;51.992;5.890;2022-10-16T16:22:56;22.30;67.20
55828;DHT22;41758;51.992;5.890;2022-10-16T16:25:21;22.20;67.20
55828;DHT22;41758;51.992;5.890;2022-10-16T16:27:47;22.20;67.20
55828;DHT22;41758;51.992;5.890;2022-10-16T16:30:13;22.20;67.20
55828;DHT22;41758;51.992;5.890;2022-10-16T16:32:39;22.20;67.30
55828;DHT22;41758;51.992;5.890;2022-10-16T16:35:05;22.10;67.40
55828;DHT22;41758;51.992;5.890;2022-10-16T16:37:31;22.10;67.50
55828;DHT22;41758;51.992;5.890;2022-10-16T16:39:57;22.10;67.50
55828;DHT22;41758;51.992;5.890;2022-10-16T16:42:26;22.10;67.60
55828;DHT22;41758;51.992;5.890;2022-10-16T16:44:52;22.10;67.50
55828;DHT22;41758;51.992;5.890;2022-10-16T16:47:18;22.10;67.50
55828;DHT22;41758;51.992;5.890;2022-10-16T16:49:44;22.10;67.50
55828;DHT22;41758;51.992;5.890;2022-10-16T16:52:09;22.10;67.50
55828;DHT22;41758;51.992;5.890;2022-10-16T16:54:35;22.10;67.60
55828;DHT22;41758;51.992;5.890;2022-10-16T16:57:01;22.00;67.60
55828;DHT22;41758;51.992;5.890;2022-10-16T16:59:29;22.00;67.60
55828;DHT22;41758;51.992;5.890;2022-10-16T17:01:58;22.00;67.70
55828;DHT22;41758;51.992;5.890;2022-10-16T17:04:25;22.00;67.70
55828;DHT22;41758;51.992;5.890;2022-10-16T17:06:53;22.00;67.70
55828;DHT22;41758;51.992;5.890;2022-10-16T17:09:20;22.00;67.70
55828;DHT22;41758;51.992;5.890;2022-10-16T17:11:46;22.00;67.80
55828;DHT22;41758;51.992;5.890;2022-10-16T17:14:14;22.00;67.80
55828;DHT22;41758;51.992;5.890;2022-10-16T17:16:41;22.00;67.80